Time;durP1;ratioP1;P1;durP2;ratioP2;P2;SDS_P1;SDS_P2;PMS_P1;PMS_P2;Temp;Humidity;BMP_temperature;BMP_pressure;BME280_temperature;BME280_humidity;BME280_pressure;Samples;Min_cycle;Max_cycle;Signal;HPM_P1;HPM_P2
2024/01/08 00:02:08;;;;;;;;;;;;;;;;;;5072547;28;19928;-67
2024/01/08 00:04:35;;;;;;;;;;;;;;;;;;5071496;28;19928;-67
2024/01/08 00:07:02;;;;;;;;;;;;;;;;;;5072211;28;19924;-67
2024/01/08 00:09:30;;;;;;;;;;;;;;;;;;5069283;28;20014;-67
2024/01/08 00:11:57;;;;;;;;;;;;;;;;;;5073241;28;20347;-68
2024/01/08 00:14:24;;;;;;;;;;;;;;;;;;5066433;28;19934;-67
2024/01/08 00:16:51;;;;;;;;;;;;;;;;;;5071591;28;20487;-67
2024/01/08 00:19:19;;;;;;;;;;;;;;;;;;5072913;28;20338;-67
2024/01/08 00:21:46;;;;;;;;;;;;;;;;;;5073936;28;20345;-66
2024/01/08 00:24:13;;;;;;;;;;;;;;;;;;5073952;28;19931;-67
2024/01/08 00:26:40;;;;;;;;;;;;;;;;;;5072310;28;20788;-66
2024/01/08 00:29:07;;;;;;;;;;;;;;;;;;5067990;28;19929;-67
2024/01/08 00:31:34;;;;;;;;;;;;;;;;;;5062788;28;20391;-67
2024/01/08 00:34:01;;;;;;;;;;;;;;;;;;5073299;28;19986;-67
2024/01/08 00:36:28;;;;;;;;;;;;;;;;;;5067620;28;19924;-67
2024/01/08 00:38:55;;;;;;;;;;;;;;;;;;5066934;28;19935;-67
2024/01/08 00:41:22;;;;;;;;;;;;;;;;;;5067600;28;19950;-67
2024/01/08 00:43:51;;;;;;;;;;;;;;;;;;5072220;28;19924;-67
2024/01/08 00:46:18;;;;;;;;;;;;;;;;;;5072773;28;19928;-67
2024/01/08 00:48:45;;;;;;;;;;;;;;;;;;5070952;28;19933;-67
2024/01/08 00:51:12;;;;;;;;;;;;;;;;;;5072523;28;19928;-67
2024/01/08 00:53:39;;;;;;;;;;;;;;;;;;5071506;28;19986;-68
2024/01/08 00:56:06;;;;;;;;;;;;;;;;;;5072670;28;19924;-68
2024/01/08 00:58:34;;;;;;;;;;;;;;;;;;5073614;28;19932;-66
2024/01/08 01:01:01;;;;;;;;;;;;;;;;;;5071961;28;20273;-68
2024/01/08 01:03:28;;;;;;;;;;;;;;;;;;5069620;28;19932;-67
2024/01/08 01:05:55;;;;;;;;;;;;;;;;;;5071163;28;19924;-67
2024/01/08 01:08:22;;;;;;;;;;;;;;;;;;5070782;28;19924;-67
2024/01/08 01:10:49;;;;;;;;;;;;;;;;;;5071712;28;19932;-67
2024/01/08 01:13:16;;;;;;;;;;;;;;;;;;5071015;28;20448;-67
2024/01/08 01:15:43;;;;;;;;;;;;;;;;;;5071051;28;19959;-67
2024/01/08 01:18:10;;;;;;;;;;;;;;;;;;5071181;28;19924;-67
2024/01/08 01:20:38;;;;;;;;;;;;;;;;;;5071087;28;19959;-67
2024/01/08 01:23:05;;;;;;;;;;;;;;;;;;5066456;28;20339;-67
2024/01/08 01:25:31;;;;;;;;;;;;;;;;;;5072209;28;19986;-67
2024/01/08 01:27:58;;;;;;;;;;;;;;;;;;5071327;28;19924;-67
2024/01/08 01:30:25;;;;;;;;;;;;;;;;;;5071186;28;20367;-67
2024/01/08 01:32:52;;;;;;;;;;;;;;;;;;5070765;28;20375;-67
2024/01/08 01:35:19;;;;;;;;;;;;;;;;;;5069240;28;20440;-67
2024/01/08 01:37:46;;;;;;;;;;;;;;;;;;5071102;28;19924;-66
2024/01/08 01:40:13;;;;;;;;;;;;;;;;;;5068785;28;20331;-67
2024/01/08 01:42:40;;;;;;;;;;;;;;;;;;5070762;28;20348;-67
2024/01/08 01:45:08;;;;;;;;;;;;;;;;;;5067694;28;19925;-67
2024/01/08 01:47:35;;;;;;;;;;;;;;;;;;5070105;28;19977;-67
2024/01/08 01:50:02;;;;;;;;;;;;;;;;;;5069758;28;19970;-67
2024/01/08 01:52:29;;;;;;;;;;;;;;;;;;5070054;28;19924;-67
2024/01/08 01:54:56;;;;;;;;;;;;;;;;;;5071718;28;20284;-68
2024/01/08 01:57:23;;;;;;;;;;;;;;;;;;5069651;28;19925;-68
2024/01/08 01:59:50;;;;;;;;;;;;;;;;;;5066023;28;19925;-68
2024/01/08 02:02:17;;;;;;;;;;;;;;;;;;5071526;28;19931;-67
2024/01/08 02:04:44;;;;;;;;;;;;;;;;;;5070470;28;19924;-68
2024/01/08 02:07:11;;;;;;;;;;;;;;;;;;5071044;28;19924;-68
2024/01/08 02:09:38;;;;;;;;;;;;;;;;;;5070329;28;19924;-68
2024/01/08 02:12:06;;;;;;;;;;;;;;;;;;5070522;28;19967;-68
2024/01/08 02:14:33;;;;;;;;;;;;;;;;;;5067856;28;19945;-68
2024/01/08 02:17:00;;;;;;;;;;;;;;;;;;5068712;28;19924;-68
2024/01/08 02:19:27;;;;;;;;;;;;;;;;;;5071764;28;19935;-67
2024/01/08 02:21:54;;;;;;;;;;;;;;;;;;5065151;28;19924;-68
2024/01/08 02:24:21;;;;;;;;;;;;;;;;;;5069399;28;19978;-68
2024/01/08 02:26:48;;;;;;;;;;;;;;;;;;5071871;28;19928;-68
2024/01/08 02:29:15;;;;;;;;;;;;;;;;;;5071683;28;20338;-68
2024/01/08 02:31:42;;;;;;;;;;;;;;;;;;5067994;28;19924;-68
2024/01/08 02:34:09;;;;;;;;;;;;;;;;;;5061935;28;19932;-68
2024/01/08 02:36:36;;;;;;;;;;;;;;;;;;5055689;28;19932;-68
2024/01/08 02:39:03;;;;;;;;;;;;;;;;;;5068562;28;20391;-68
2024/01/08 02:41:30;;;;;;;;;;;;;;;;;;5070645;28;20015;-68
2024/01/08 02:43:57;;;;;;;;;;;;;;;;;;5071959;28;19924;-68
2024/01/08 02:46:24;;;;;;;;;;;;;;;;;;5071820;28;19925;-68
2024/01/08 02:48:52;;;;;;;;;;;;;;;;;;5062448;28;19928;-68
2024/01/08 02:51:19;;;;;;;;;;;;;;;;;;5065979;28;19924;-67
2024/01/08 02:53:46;;;;;;;;;;;;;;;;;;5070676;28;19929;-68
2024/01/08 02:56:13;;;;;;;;;;;;;;;;;;5071075;28;20439;-68
2024/01/08 02:58:40;;;;;;;;;;;;;;;;;;5070910;28;20337;-68
2024/01/08 03:01:07;;;;;;;;;;;;;;;;;;5068050;28;19932;-67
2024/01/08 03:03:34;;;;;;;;;;;;;;;;;;5069360;28;19925;-68
2024/01/08 03:06:01;;;;;;;;;;;;;;;;;;5059339;28;19970;-68
2024/01/08 03:08:28;;;;;;;;;;;;;;;;;;5069790;28;19925;-68
2024/01/08 03:10:55;;;;;;;;;;;;;;;;;;5070537;28;19928;-67
2024/01/08 03:13:22;;;;;;;;;;;;;;;;;;5069896;28;19925;-68
2024/01/08 03:15:49;;;;;;;;;;;;;;;;;;5069600;28;19977;-68
2024/01/08 03:18:16;;;;;;;;;;;;;;;;;;5070075;28;19925;-67
2024/01/08 03:20:43;;;;;;;;;;;;;;;;;;5069595;28;19940;-67
2024/01/08 03:23:10;;;;;;;;;;;;;;;;;;5070718;28;19928;-67
2024/01/08 03:25:37;;;;;;;;;;;;;;;;;;5069154;28;19925;-68
2024/01/08 03:28:04;;;;;;;;;;;;;;;;;;5074440;28;19946;-68
2024/01/08 03:30:32;;;;;;;;;;;;;;;;;;5074735;28;19932;-68
2024/01/08 03:32:59;;;;;;;;;;;;;;;;;;5073781;28;20336;-68
2024/01/08 03:35:26;;;;;;;;;;;;;;;;;;5073721;28;19978;-68
2024/01/08 03:37:53;;;;;;;;;;;;;;;;;;5071366;28;20398;-67
2024/01/08 03:40:20;;;;;;;;;;;;;;;;;;5072563;28;20384;-68
2024/01/08 03:42:47;;;;;;;;;;;;;;;;;;5073406;28;20405;-68
2024/01/08 03:45:15;;;;;;;;;;;;;;;;;;5074350;28;19924;-68
2024/01/08 03:47:42;;;;;;;;;;;;;;;;;;5071733;28;19967;-68
2024/01/08 03:50:09;;;;;;;;;;;;;;;;;;5071859;28;19978;-68
2024/01/08 03:52:36;;;;;;;;;;;;;;;;;;5073286;28;19924;-68
2024/01/08 03:55:02;;;;;;;;;;;;;;;;;;5071356;28;19970;-68
2024/01/08 03:57:29;;;;;;;;;;;;;;;;;;5073169;28;19932;-68
2024/01/08 03:59:56;;;;;;;;;;;;;;;;;;5073862;28;19924;-67
2024/01/08 04:02:23;;;;;;;;;;;;;;;;;;5072171;28;19924;-68
2024/01/08 04:04:50;;;;;;;;;;;;;;;;;;5071591;28;19924;-67
2024/01/08 04:07:17;;;;;;;;;;;;;;;;;;5073154;28;20383;-67
2024/01/08 04:09:44;;;;;;;;;;;;;;;;;;5072781;28;20370;-67
2024/01/08 04:12:13;;;;;;;;;;;;;;;;;;5072672;28;19929;-67
2024/01/08 04:14:40;;;;;;;;;;;;;;;;;;5070330;28;20011;-67
2024/01/08 04:17:07;;;;;;;;;;;;;;;;;;5071684;28;19950;-67
2024/01/08 04:19:34;;;;;;;;;;;;;;;;;;5071964;28;20396;-68
2024/01/08 04:22:01;;;;;;;;;;;;;;;;;;5072357;28;20014;-67
2024/01/08 04:24:28;;;;;;;;;;;;;;;;;;5071809;28;19932;-68
2024/01/08 04:26:55;;;;;;;;;;;;;;;;;;5067362;28;19924;-68
2024/01/08 04:29:22;;;;;;;;;;;;;;;;;;5065507;28;19970;-68
2024/01/08 04:31:49;;;;;;;;;;;;;;;;;;5070884;28;19970;-67
2024/01/08 04:34:16;;;;;;;;;;;;;;;;;;5073566;28;19947;-68
2024/01/08 04:36:43;;;;;;;;;;;;;;;;;;5072735;28;19924;-68
2024/01/08 04:39:10;;;;;;;;;;;;;;;;;;5072443;28;20023;-68
2024/01/08 04:41:37;;;;;;;;;;;;;;;;;;5073827;28;20368;-67
2024/01/08 04:44:05;;;;;;;;;;;;;;;;;;5073352;28;19968;-67
2024/01/08 04:46:32;;;;;;;;;;;;;;;;;;5073112;28;19968;-67
2024/01/08 04:48:59;;;;;;;;;;;;;;;;;;5073695;28;19924;-67
2024/01/08 04:51:26;;;;;;;;;;;;;;;;;;5071082;28;19925;-68
2024/01/08 04:53:53;;;;;;;;;;;;;;;;;;5069856;28;19925;-68
2024/01/08 04:56:20;;;;;;;;;;;;;;;;;;5069972;28;19978;-67
2024/01/08 04:58:47;;;;;;;;;;;;;;;;;;5071959;28;19935;-67
2024/01/08 05:01:14;;;;;;;;;;;;;;;;;;5071972;28;19924;-68
2024/01/08 05:03:41;;;;;;;;;;;;;;;;;;5068271;28;19929;-67
2024/01/08 05:06:09;;;;;;;;;;;;;;;;;;5069511;28;20088;-68
2024/01/08 05:08:36;;;;;;;;;;;;;;;;;;5063806;28;20343;-67
2024/01/08 05:11:03;;;;;;;;;;;;;;;;;;5064919;28;19981;-71
2024/01/08 05:13:30;;;;;;;;;;;;;;;;;;5069290;28;19925;-70
2024/01/08 05:15:57;;;;;;;;;;;;;;;;;;5070213;28;20403;-68
2024/01/08 05:18:24;;;;;;;;;;;;;;;;;;5070030;28;19932;-68
2024/01/08 05:20:51;;;;;;;;;;;;;;;;;;5066675;28;19928;-67
2024/01/08 05:23:18;;;;;;;;;;;;;;;;;;5070792;28;19931;-68
2024/01/08 05:25:45;;;;;;;;;;;;;;;;;;5070977;28;19932;-68
2024/01/08 05:28:12;;;;;;;;;;;;;;;;;;5072226;28;19924;-66
2024/01/08 05:30:39;;;;;;;;;;;;;;;;;;5070796;28;19993;-67
2024/01/08 05:33:06;;;;;;;;;;;;;;;;;;5070729;28;19924;-67
2024/01/08 05:35:34;;;;;;;;;;;;;;;;;;5060754;28;20072;-67
2024/01/08 05:38:01;;;;;;;;;;;;;;;;;;5066698;28;20399;-67
2024/01/08 05:40:28;;;;;;;;;;;;;;;;;;5069627;28;19971;-67
2024/01/08 05:42:56;;;;;;;;;;;;;;;;;;5071053;28;19971;-67
2024/01/08 05:45:23;;;;;;;;;;;;;;;;;;5071838;28;19924;-67
2024/01/08 05:47:52;;;;;;;;;;;;;;;;;;5071488;28;20336;-67
2024/01/08 05:50:20;;;;;;;;;;;;;;;;;;5068794;28;19980;-67
2024/01/08 05:52:47;;;;;;;;;;;;;;;;;;5070809;28;19963;-67
2024/01/08 05:55:15;;;;;;;;;;;;;;;;;;5061889;28;19932;-67
2024/01/08 05:57:42;;;;;;;;;;;;;;;;;;5064772;28;19932;-67
2024/01/08 06:00:09;;;;;;;;;;;;;;;;;;5070477;28;19929;-67
2024/01/08 06:02:36;;;;;;;;;;;;;;;;;;5069942;28;20009;-67
2024/01/08 06:05:03;;;;;;;;;;;;;;;;;;5069373;28;19924;-67
2024/01/08 06:07:30;;;;;;;;;;;;;;;;;;5067597;28;19959;-67
2024/01/08 06:09:57;;;;;;;;;;;;;;;;;;5070408;28;19931;-66
2024/01/08 06:12:24;;;;;;;;;;;;;;;;;;5067344;28;19950;-67
2024/01/08 06:14:51;;;;;;;;;;;;;;;;;;5070701;28;19925;-67
2024/01/08 06:17:18;;;;;;;;;;;;;;;;;;5070545;28;19931;-67
2024/01/08 06:19:45;;;;;;;;;;;;;;;;;;5071778;28;19947;-68
2024/01/08 06:22:12;;;;;;;;;;;;;;;;;;5071569;28;19932;-68
2024/01/08 06:24:40;;;;;;;;;;;;;;;;;;5071944;28;20002;-67
2024/01/08 06:27:07;;;;;;;;;;;;;;;;;;5069031;28;20312;-69
2024/01/08 06:29:34;;;;;;;;;;;;;;;;;;5063504;28;19925;-67
2024/01/08 06:32:01;;;;;;;;;;;;;;;;;;5067880;28;19925;-67
2024/01/08 06:34:28;;;;;;;;;;;;;;;;;;5063480;28;19924;-68
2024/01/08 06:36:55;;;;;;;;;;;;;;;;;;5069167;28;19978;-69
2024/01/08 06:39:22;;;;;;;;;;;;;;;;;;5069822;28;19986;-68
2024/01/08 06:41:49;;;;;;;;;;;;;;;;;;5069817;28;19985;-68
2024/01/08 06:44:16;;;;;;;;;;;;;;;;;;5064976;28;19986;-68
2024/01/08 06:46:43;;;;;;;;;;;;;;;;;;5065840;28;19925;-67
2024/01/08 06:49:10;;;;;;;;;;;;;;;;;;5068731;28;19963;-68
2024/01/08 06:51:37;;;;;;;;;;;;;;;;;;5066929;28;19931;-68
2024/01/08 06:54:04;;;;;;;;;;;;;;;;;;5069385;28;19929;-68
2024/01/08 06:56:31;;;;;;;;;;;;;;;;;;5061453;28;19959;-67
2024/01/08 06:59:01;;;;;;;;;;;;;;;;;;5089222;22;19988;-68
2024/01/08 07:01:28;;;;;;;;;;;;;;;;;;5035048;28;20296;-68
2024/01/08 07:03:55;;;;;;;;;;;;;;;;;;5050820;28;19986;-68
2024/01/08 07:06:22;;;;;;;;;;;;;;;;;;5053282;28;19924;-68
2024/01/08 07:08:49;;;;;;;;;;;;;;;;;;5045564;28;20407;-68
2024/01/08 07:11:16;;;;;;;;;;;;;;;;;;5046389;28;20406;-68
2024/01/08 07:13:43;;;;;;;;;;;;;;;;;;5050053;28;19924;-68
2024/01/08 07:16:10;;;;;;;;;;;;;;;;;;5055130;28;19932;-64
2024/01/08 07:18:37;;;;;;;;;;;;;;;;;;5051637;28;19925;-66
2024/01/08 07:21:05;;;;;;;;;;;;;;;;;;5054657;28;20015;-63
2024/01/08 07:23:33;;;;;;;;;;;;;;;;;;5052964;28;19929;-65
2024/01/08 07:26:00;;;;;;;;;;;;;;;;;;5053208;28;19924;-67
2024/01/08 07:28:27;;;;;;;;;;;;;;;;;;5051325;28;20376;-69
2024/01/08 07:30:54;;;;;;;;;;;;;;;;;;5051785;28;19928;-69
2024/01/08 07:33:22;;;;;;;;;;;;;;;;;;5053313;28;19929;-69
2024/01/08 07:35:52;;;;;;;;;;;;;;;;;;5051325;28;20027;-69
2024/01/08 07:38:21;;;;;;;;;;;;;;;;;;5051773;28;19976;-67
2024/01/08 07:40:49;;;;;;;;;;;;;;;;;;5042703;28;19971;-69
2024/01/08 07:43:16;;;;;;;;;;;;;;;;;;5053247;28;19932;-69
2024/01/08 07:45:43;;;;;;;;;;;;;;;;;;5051860;28;19948;-69
2024/01/08 07:48:11;;;;;;;;;;;;;;;;;;5042966;28;19924;-68
2024/01/08 07:50:39;;;;;;;;;;;;;;;;;;5046972;28;19925;-68
2024/01/08 07:53:06;;;;;;;;;;;;;;;;;;5046429;28;19925;-68
2024/01/08 07:55:33;;;;;;;;;;;;;;;;;;5050277;28;19974;-67
2024/01/08 07:58:00;;;;;;;;;;;;;;;;;;5052036;28;19947;-67
2024/01/08 08:00:28;;;;;;;;;;;;;;;;;;5036512;28;20502;-67
2024/01/08 08:02:55;;;;;;;;;;;;;;;;;;5050363;28;20445;-68
2024/01/08 08:05:22;;;;;;;;;;;;;;;;;;5051156;28;20051;-67
2024/01/08 08:07:49;;;;;;;;;;;;;;;;;;5052715;28;20010;-67
2024/01/08 08:10:16;;;;;;;;;;;;;;;;;;5050926;28;19932;-67
2024/01/08 08:12:43;;;;;;;;;;;;;;;;;;5042359;28;19928;-67
2024/01/08 08:15:11;;;;;;;;;;;;;;;;;;5047199;28;20446;-67
2024/01/08 08:17:38;;;;;;;;;;;;;;;;;;5043321;28;19959;-67
2024/01/08 08:20:05;;;;;;;;;;;;;;;;;;5051150;28;19939;-66
2024/01/08 08:22:32;;;;;;;;;;;;;;;;;;5048339;28;19925;-67
2024/01/08 08:24:59;;;;;;;;;;;;;;;;;;5054210;28;19925;-67
2024/01/08 08:27:26;;;;;;;;;;;;;;;;;;5042695;28;19987;-67
2024/01/08 08:29:54;;;;;;;;;;;;;;;;;;5050455;28;19925;-67
2024/01/08 08:32:21;;;;;;;;;;;;;;;;;;5051584;28;19925;-68
2024/01/08 08:34:48;;;;;;;;;;;;;;;;;;5040688;28;19925;-67
2024/01/08 08:37:15;;;;;;;;;;;;;;;;;;5058405;28;19928;-67
2024/01/08 08:39:42;;;;;;;;;;;;;;;;;;5047210;28;19972;-67
2024/01/08 08:42:09;;;;;;;;;;;;;;;;;;5046450;28;20354;-67
2024/01/08 08:44:37;;;;;;;;;;;;;;;;;;5046847;28;19956;-67
2024/01/08 08:47:04;;;;;;;;;;;;;;;;;;5050249;28;20380;-66
2024/01/08 08:49:31;;;;;;;;;;;;;;;;;;5052004;28;19978;-67
2024/01/08 08:51:58;;;;;;;;;;;;;;;;;;5052164;28;19971;-67
2024/01/08 08:54:25;;;;;;;;;;;;;;;;;;5053311;28;19924;-67
2024/01/08 08:56:52;;;;;;;;;;;;;;;;;;5045478;28;19944;-67
2024/01/08 08:59:19;;;;;;;;;;;;;;;;;;5050512;28;19925;-67
2024/01/08 09:01:46;;;;;;;;;;;;;;;;;;5048986;28;20027;-67
2024/01/08 09:04:13;;;;;;;;;;;;;;;;;;5051139;28;19925;-67
2024/01/08 09:06:40;;;;;;;;;;;;;;;;;;5050181;28;19953;-67
2024/01/08 09:09:08;;;;;;;;;;;;;;;;;;5049771;28;19971;-67
2024/01/08 09:11:37;;;;;;;;;;;;;;;;;;5051865;28;19928;-67
2024/01/08 09:14:04;;;;;;;;;;;;;;;;;;5049219;28;19931;-67
2024/01/08 09:16:31;;;;;;;;;;;;;;;;;;5052340;28;19924;-67
2024/01/08 09:18:58;;;;;;;;;;;;;;;;;;5048914;28;19928;-67
2024/01/08 09:21:25;;;;;;;;;;;;;;;;;;5058786;28;20302;-67
2024/01/08 09:23:52;;;;;;;;;;;;;;;;;;5050037;28;20277;-67
2024/01/08 09:26:19;;;;;;;;;;;;;;;;;;5050245;28;20379;-67
2024/01/08 09:28:46;;;;;;;;;;;;;;;;;;5050654;28;20345;-67
2024/01/08 09:31:13;;;;;;;;;;;;;;;;;;5045130;28;20473;-67
2024/01/08 09:33:40;;;;;;;;;;;;;;;;;;5049827;28;20452;-67
2024/01/08 09:36:07;;;;;;;;;;;;;;;;;;5049558;28;19929;-67
2024/01/08 09:38:35;;;;;;;;;;;;;;;;;;5050433;28;19925;-67
2024/01/08 09:41:02;;;;;;;;;;;;;;;;;;5050677;28;19925;-67
2024/01/08 09:43:29;;;;;;;;;;;;;;;;;;5047539;28;19987;-68
2024/01/08 09:45:56;;;;;;;;;;;;;;;;;;5046049;28;19925;-68
2024/01/08 09:48:23;;;;;;;;;;;;;;;;;;5054189;28;19971;-68
2024/01/08 09:50:50;;;;;;;;;;;;;;;;;;5048388;28;19925;-67
2024/01/08 09:53:17;;;;;;;;;;;;;;;;;;5047450;28;19929;-67
2024/01/08 09:55:44;;;;;;;;;;;;;;;;;;5048679;28;19978;-67
2024/01/08 09:58:11;;;;;;;;;;;;;;;;;;5046841;28;19929;-67
2024/01/08 10:00:38;;;;;;;;;;;;;;;;;;5048099;28;20467;-66
2024/01/08 10:03:05;;;;;;;;;;;;;;;;;;5042319;28;22037;-66
2024/01/08 10:05:32;;;;;;;;;;;;;;;;;;5046880;28;19964;-67
2024/01/08 10:07:59;;;;;;;;;;;;;;;;;;5046955;28;20376;-66
2024/01/08 10:10:28;;;;;;;;;;;;;;;;;;5041733;28;20002;-66
2024/01/08 10:12:55;;;;;;;;;;;;;;;;;;5037035;28;19928;-66
2024/01/08 10:15:22;;;;;;;;;;;;;;;;;;5044709;28;19933;-66
2024/01/08 10:17:49;;;;;;;;;;;;;;;;;;5048099;28;19979;-66
2024/01/08 10:20:16;;;;;;;;;;;;;;;;;;5037850;28;19978;-67
2024/01/08 10:22:44;;;;;;;;;;;;;;;;;;5051259;28;19924;-69
2024/01/08 10:25:11;;;;;;;;;;;;;;;;;;5049524;28;19946;-68
2024/01/08 10:27:39;;;;;;;;;;;;;;;;;;5042661;28;20384;-66
2024/01/08 10:30:06;;;;;;;;;;;;;;;;;;5049249;28;19924;-69
2024/01/08 10:32:33;;;;;;;;;;;;;;;;;;5048815;28;19947;-66
2024/01/08 10:35:00;;;;;;;;;;;;;;;;;;5047482;28;19925;-66
2024/01/08 10:37:27;;;;;;;;;;;;;;;;;;5048929;28;19987;-66
2024/01/08 10:39:54;;;;;;;;;;;;;;;;;;5049827;28;19961;-66
2024/01/08 10:42:21;;;;;;;;;;;;;;;;;;5051808;28;20342;-66
2024/01/08 10:44:49;;;;;;;;;;;;;;;;;;5049494;28;19968;-66
2024/01/08 10:47:16;;;;;;;;;;;;;;;;;;5048266;28;19925;-66
2024/01/08 10:49:43;;;;;;;;;;;;;;;;;;5047204;28;20408;-66
2024/01/08 10:52:11;;;;;;;;;;;;;;;;;;5050868;28;19936;-66
2024/01/08 10:54:38;;;;;;;;;;;;;;;;;;5047800;28;20443;-66
2024/01/08 10:57:05;;;;;;;;;;;;;;;;;;5047611;28;20378;-66
2024/01/08 10:59:32;;;;;;;;;;;;;;;;;;5046908;28;19925;-67
2024/01/08 11:01:59;;;;;;;;;;;;;;;;;;5047560;28;19924;-67
2024/01/08 11:04:26;;;;;;;;;;;;;;;;;;5047861;28;19925;-67
2024/01/08 11:06:53;;;;;;;;;;;;;;;;;;5048531;28;19924;-67
2024/01/08 11:09:20;;;;;;;;;;;;;;;;;;5051160;28;19925;-67
2024/01/08 11:11:47;;;;;;;;;;;;;;;;;;5053109;28;19929;-66
2024/01/08 11:14:14;;;;;;;;;;;;;;;;;;5048552;28;19925;-68
2024/01/08 11:16:41;;;;;;;;;;;;;;;;;;5051889;28;19932;-68
2024/01/08 11:19:08;;;;;;;;;;;;;;;;;;5056238;28;20395;-68
2024/01/08 11:21:35;;;;;;;;;;;;;;;;;;5057849;28;19925;-68
2024/01/08 11:24:02;;;;;;;;;;;;;;;;;;5056772;28;20299;-68
2024/01/08 11:26:29;;;;;;;;;;;;;;;;;;5047043;28;20629;-68
2024/01/08 11:28:57;;;;;;;;;;;;;;;;;;5045946;28;19990;-70
2024/01/08 11:31:23;;;;;;;;;;;;;;;;;;5052416;28;19928;-70
2024/01/08 11:33:50;;;;;;;;;;;;;;;;;;5056547;28;19932;-68
2024/01/08 11:36:17;;;;;;;;;;;;;;;;;;5052074;28;19924;-70
2024/01/08 11:38:44;;;;;;;;;;;;;;;;;;5052887;28;20400;-67
2024/01/08 11:41:12;;;;;;;;;;;;;;;;;;5053102;28;20711;-68
2024/01/08 11:43:39;;;;;;;;;;;;;;;;;;5049960;28;19948;-68
2024/01/08 11:46:06;;;;;;;;;;;;;;;;;;5046388;28;20446;-68
2024/01/08 11:48:33;;;;;;;;;;;;;;;;;;5044443;28;19924;-69
2024/01/08 11:51:00;;;;;;;;;;;;;;;;;;5047810;28;19925;-68
2024/01/08 11:53:27;;;;;;;;;;;;;;;;;;5048695;28;19951;-68
2024/01/08 11:55:54;;;;;;;;;;;;;;;;;;5046867;28;19932;-68
2024/01/08 11:58:21;;;;;;;;;;;;;;;;;;5045180;28;19925;-67
2024/01/08 12:00:49;;;;;;;;;;;;;;;;;;5037753;28;19928;-68
2024/01/08 12:03:16;;;;;;;;;;;;;;;;;;5039445;28;19940;-68
2024/01/08 12:05:43;;;;;;;;;;;;;;;;;;5044014;28;20480;-67
2024/01/08 12:08:10;;;;;;;;;;;;;;;;;;5046422;28;20400;-68
2024/01/08 12:10:37;;;;;;;;;;;;;;;;;;5049221;28;19970;-67
2024/01/08 12:13:04;;;;;;;;;;;;;;;;;;5046776;28;19971;-67
2024/01/08 12:15:32;;;;;;;;;;;;;;;;;;5045069;28;19925;-68
2024/01/08 12:18:00;;;;;;;;;;;;;;;;;;5052444;28;19928;-67
2024/01/08 12:20:28;;;;;;;;;;;;;;;;;;5045992;28;19936;-68
2024/01/08 12:22:55;;;;;;;;;;;;;;;;;;5048269;28;20295;-68
2024/01/08 12:25:22;;;;;;;;;;;;;;;;;;5046911;28;19967;-67
2024/01/08 12:27:49;;;;;;;;;;;;;;;;;;5047172;28;19929;-67
2024/01/08 12:30:17;;;;;;;;;;;;;;;;;;5037147;28;20399;-66
2024/01/08 12:32:44;;;;;;;;;;;;;;;;;;5045752;28;19964;-66
2024/01/08 12:35:12;;;;;;;;;;;;;;;;;;5041967;28;20030;-66
2024/01/08 12:37:39;;;;;;;;;;;;;;;;;;5039385;28;20004;-69
2024/01/08 12:40:06;;;;;;;;;;;;;;;;;;5046570;28;20344;-69
2024/01/08 12:42:33;;;;;;;;;;;;;;;;;;5042291;28;19943;-66
2024/01/08 12:45:00;;;;;;;;;;;;;;;;;;5045456;28;19979;-67
2024/01/08 12:47:28;;;;;;;;;;;;;;;;;;5041262;28;20290;-67
2024/01/08 12:49:56;;;;;;;;;;;;;;;;;;5040156;28;20300;-67
2024/01/08 12:52:23;;;;;;;;;;;;;;;;;;5039027;28;20392;-66
2024/01/08 12:54:50;;;;;;;;;;;;;;;;;;5043157;28;20495;-67
2024/01/08 12:57:17;;;;;;;;;;;;;;;;;;5044956;28;20335;-67
2024/01/08 12:59:44;;;;;;;;;;;;;;;;;;5042421;28;19932;-66
2024/01/08 13:02:11;;;;;;;;;;;;;;;;;;5042415;28;19925;-67
2024/01/08 13:04:38;;;;;;;;;;;;;;;;;;5042695;28;19925;-67
2024/01/08 13:07:06;;;;;;;;;;;;;;;;;;5053515;28;19924;-69
2024/01/08 13:09:33;;;;;;;;;;;;;;;;;;5050967;28;20015;-68
2024/01/08 13:12:00;;;;;;;;;;;;;;;;;;5039216;28;19944;-67
2024/01/08 13:14:27;;;;;;;;;;;;;;;;;;5041044;28;19941;-66
2024/01/08 13:16:54;;;;;;;;;;;;;;;;;;5040092;28;19944;-67
2024/01/08 13:19:21;;;;;;;;;;;;;;;;;;5041964;28;19976;-67
2024/01/08 13:21:48;;;;;;;;;;;;;;;;;;5038228;28;19925;-67
2024/01/08 13:24:15;;;;;;;;;;;;;;;;;;5049562;28;19979;-67
2024/01/08 13:26:42;;;;;;;;;;;;;;;;;;5043650;28;19926;-69
2024/01/08 13:29:09;;;;;;;;;;;;;;;;;;5047463;28;19969;-66
2024/01/08 13:31:38;;;;;;;;;;;;;;;;;;5047060;28;20398;-67
2024/01/08 13:34:06;;;;;;;;;;;;;;;;;;5043705;28;20015;-67
2024/01/08 13:36:33;;;;;;;;;;;;;;;;;;5041543;28;19924;-67
2024/01/08 13:39:00;;;;;;;;;;;;;;;;;;5043659;28;20005;-67
2024/01/08 13:41:28;;;;;;;;;;;;;;;;;;5039861;28;19983;-70
2024/01/08 13:43:55;;;;;;;;;;;;;;;;;;5040258;28;20356;-67
2024/01/08 13:46:23;;;;;;;;;;;;;;;;;;5041736;28;20511;-67
2024/01/08 13:48:51;;;;;;;;;;;;;;;;;;5049709;28;20407;-67
2024/01/08 13:51:18;;;;;;;;;;;;;;;;;;5044697;28;19933;-69
2024/01/08 13:53:45;;;;;;;;;;;;;;;;;;5038866;28;19925;-67
2024/01/08 13:56:12;;;;;;;;;;;;;;;;;;5048277;28;19925;-67
2024/01/08 13:58:39;;;;;;;;;;;;;;;;;;5042840;28;20462;-67
2024/01/08 14:01:08;;;;;;;;;;;;;;;;;;5037389;28;20001;-66
2024/01/08 14:03:35;;;;;;;;;;;;;;;;;;5046821;28;19967;-65
2024/01/08 14:06:02;;;;;;;;;;;;;;;;;;5052322;28;19970;-68
2024/01/08 14:08:31;;;;;;;;;;;;;;;;;;5037656;28;19925;-68
2024/01/08 14:10:58;;;;;;;;;;;;;;;;;;5037638;28;19932;-68
2024/01/08 14:13:25;;;;;;;;;;;;;;;;;;5042700;28;19924;-69
2024/01/08 14:15:52;;;;;;;;;;;;;;;;;;5042238;28;19941;-68
2024/01/08 14:18:19;;;;;;;;;;;;;;;;;;5046064;28;20256;-68
2024/01/08 14:20:47;;;;;;;;;;;;;;;;;;5039053;28;19936;-68
2024/01/08 14:23:14;;;;;;;;;;;;;;;;;;5045087;28;19924;-67
2024/01/08 14:25:42;;;;;;;;;;;;;;;;;;5038935;28;19978;-68
2024/01/08 14:28:09;;;;;;;;;;;;;;;;;;5041734;28;19932;-67
2024/01/08 14:30:36;;;;;;;;;;;;;;;;;;5035281;28;19924;-66
2024/01/08 14:33:03;;;;;;;;;;;;;;;;;;5036367;28;19987;-68
2024/01/08 14:35:30;;;;;;;;;;;;;;;;;;5039466;28;19932;-67
2024/01/08 14:37:57;;;;;;;;;;;;;;;;;;5047294;28;19932;-67
2024/01/08 14:40:27;;;;;;;;;;;;;;;;;;5040512;28;19925;-67
2024/01/08 14:42:54;;;;;;;;;;;;;;;;;;5041574;28;20407;-67
2024/01/08 14:45:21;;;;;;;;;;;;;;;;;;5036866;28;19983;-67
2024/01/08 14:47:48;;;;;;;;;;;;;;;;;;5044744;28;19963;-67
2024/01/08 14:50:16;;;;;;;;;;;;;;;;;;5044984;28;19975;-68
2024/01/08 14:52:43;;;;;;;;;;;;;;;;;;5043629;28;19987;-68
2024/01/08 14:55:10;;;;;;;;;;;;;;;;;;5046603;28;19925;-68
2024/01/08 14:57:37;;;;;;;;;;;;;;;;;;5034329;28;20419;-68
2024/01/08 15:00:06;;;;;;;;;;;;;;;;;;5041162;28;19925;-66
2024/01/08 15:02:33;;;;;;;;;;;;;;;;;;5046784;28;20298;-66
2024/01/08 15:05:00;;;;;;;;;;;;;;;;;;5041395;28;19925;-65
2024/01/08 15:07:28;;;;;;;;;;;;;;;;;;5047118;28;20356;-68
2024/01/08 15:09:57;;;;;;;;;;;;;;;;;;5045121;28;19932;-68
2024/01/08 15:12:24;;;;;;;;;;;;;;;;;;5048268;28;20020;-66
2024/01/08 15:14:51;;;;;;;;;;;;;;;;;;5045757;28;20391;-68
2024/01/08 15:17:18;;;;;;;;;;;;;;;;;;5045362;28;19968;-69
2024/01/08 15:19:45;;;;;;;;;;;;;;;;;;5037862;28;19964;-71
2024/01/08 15:22:12;;;;;;;;;;;;;;;;;;5044307;28;19931;-70
2024/01/08 15:24:39;;;;;;;;;;;;;;;;;;5052839;28;19924;-67
2024/01/08 15:27:07;;;;;;;;;;;;;;;;;;5043307;28;20222;-66
2024/01/08 15:29:34;;;;;;;;;;;;;;;;;;5040873;28;19932;-69
2024/01/08 15:32:02;;;;;;;;;;;;;;;;;;5035404;28;19971;-67
2024/01/08 15:34:29;;;;;;;;;;;;;;;;;;5042877;28;19925;-67
2024/01/08 15:36:57;;;;;;;;;;;;;;;;;;5050096;28;19925;-66
2024/01/08 15:39:24;;;;;;;;;;;;;;;;;;5052149;28;19956;-67
2024/01/08 15:41:51;;;;;;;;;;;;;;;;;;5051509;28;19929;-66
2024/01/08 15:44:18;;;;;;;;;;;;;;;;;;5048903;28;19925;-65
2024/01/08 15:46:46;;;;;;;;;;;;;;;;;;5049580;28;20081;-65
2024/01/08 15:49:13;;;;;;;;;;;;;;;;;;5045983;28;19932;-65
2024/01/08 15:51:40;;;;;;;;;;;;;;;;;;5036755;28;19932;-66
2024/01/08 15:54:07;;;;;;;;;;;;;;;;;;5042205;28;20551;-64
2024/01/08 15:56:34;;;;;;;;;;;;;;;;;;5047303;28;20403;-65
2024/01/08 15:59:01;;;;;;;;;;;;;;;;;;5042763;28;20398;-65
2024/01/08 16:01:29;;;;;;;;;;;;;;;;;;5045440;28;19925;-65
2024/01/08 16:03:56;;;;;;;;;;;;;;;;;;5044836;28;19979;-65
2024/01/08 16:06:23;;;;;;;;;;;;;;;;;;5044412;28;20395;-65
2024/01/08 16:08:50;;;;;;;;;;;;;;;;;;5042136;28;19925;-65
2024/01/08 16:11:17;;;;;;;;;;;;;;;;;;5043597;22;19928;-66
2024/01/08 16:13:45;;;;;;;;;;;;;;;;;;5034639;28;19929;-64
2024/01/08 16:16:12;;;;;;;;;;;;;;;;;;5029145;28;19967;-64
2024/01/08 16:18:40;;;;;;;;;;;;;;;;;;5037593;28;19940;-65
2024/01/08 16:21:07;;;;;;;;;;;;;;;;;;5044974;28;19968;-65
2024/01/08 16:23:34;;;;;;;;;;;;;;;;;;5032139;28;22030;-65
2024/01/08 16:26:04;;;;;;;;;;;;;;;;;;5030199;28;20019;-65
2024/01/08 16:28:32;;;;;;;;;;;;;;;;;;5024603;28;19939;-65
2024/01/08 16:30:59;;;;;;;;;;;;;;;;;;5041510;28;19932;-65
2024/01/08 16:33:26;;;;;;;;;;;;;;;;;;5054635;28;20029;-65
2024/01/08 16:35:53;;;;;;;;;;;;;;;;;;5049136;28;19999;-66
2024/01/08 16:38:20;;;;;;;;;;;;;;;;;;5048624;28;22314;-65
2024/01/08 16:40:47;;;;;;;;;;;;;;;;;;5051408;28;19971;-66
2024/01/08 16:43:14;;;;;;;;;;;;;;;;;;5054584;28;19964;-66
2024/01/08 16:45:41;;;;;;;;;;;;;;;;;;5044845;28;19972;-65